createdAt,value
2023-05-16T00:02:03.181Z,98774.84
2023-05-16T00:04:33.228Z,98770.50
2023-05-16T00:07:00.366Z,98770.00
2023-05-16T00:09:27.450Z,98772.31
2023-05-16T00:11:54.815Z,98769.75
2023-05-16T00:14:21.904Z,98760.88
2023-05-16T00:16:48.911Z,98746.84
2023-05-16T00:19:16.425Z,98746.03
2023-05-16T00:21:44.834Z,98744.31
2023-05-16T00:24:12.020Z,98739.78
2023-05-16T00:26:39.430Z,98743.28
2023-05-16T00:29:07.038Z,98749.66
2023-05-16T00:31:34.637Z,98758.44
2023-05-16T00:34:02.065Z,98754.94
2023-05-16T00:36:29.250Z,98755.31
2023-05-16T00:38:56.487Z,98760.84
2023-05-16T00:41:23.860Z,98757.69
2023-05-16T00:43:51.019Z,98758.06
2023-05-16T00:46:18.254Z,98755.78
2023-05-16T00:48:45.662Z,98758.06
2023-05-16T00:51:12.893Z,98763.97
2023-05-16T00:53:40.111Z,98766.09
2023-05-16T00:56:07.885Z,98770.31
2023-05-16T00:58:36.748Z,98771.63
2023-05-16T01:01:05.170Z,98764.03
2023-05-16T01:03:33.330Z,98770.00
2023-05-16T01:06:00.790Z,98777.47
2023-05-16T01:08:27.877Z,98781.78
2023-05-16T01:11:34.550Z,98784.78
2023-05-16T01:14:27.615Z,98778.75
2023-05-16T01:17:05.247Z,98764.91
2023-05-16T01:19:47.628Z,98763.84
2023-05-16T01:23:00.257Z,98756.97
2023-05-16T01:25:48.372Z,98767.13
2023-05-16T01:28:17.690Z,98771.34
2023-05-16T01:30:44.993Z,98775.81
2023-05-16T01:33:12.508Z,98775.19
2023-05-16T01:36:05.788Z,98768.47
2023-05-16T01:38:38.961Z,98754.53
2023-05-16T01:41:15.721Z,98743.22
2023-05-16T01:43:49.781Z,98745.78
2023-05-16T01:46:24.351Z,98747.44
2023-05-16T01:49:03.847Z,98746.22
2023-05-16T01:51:36.010Z,98739.03
2023-05-16T01:54:09.232Z,98741.66
2023-05-16T01:56:37.824Z,98731.78
2023-05-16T01:59:06.012Z,98733.25
2023-05-16T02:01:33.643Z,98726.53
2023-05-16T02:04:01.127Z,98722.78
2023-05-16T02:06:28.394Z,98721.22
2023-05-16T02:08:56.353Z,98720.25
2023-05-16T02:11:23.736Z,98729.84
2023-05-16T02:13:51.633Z,98736.81
2023-05-16T02:16:18.911Z,98737.41
2023-05-16T02:18:46.095Z,98734.97
2023-05-16T02:21:13.162Z,98722.88
2023-05-16T02:23:40.476Z,98712.13
2023-05-16T02:26:07.481Z,98701.75
2023-05-16T02:28:34.659Z,98692.81
2023-05-16T02:31:02.322Z,98693.16
2023-05-16T02:33:29.758Z,98696.66
2023-05-16T02:35:56.785Z,98698.09
2023-05-16T02:38:26.241Z,98680.03
2023-05-16T02:40:53.222Z,98688.13
2023-05-16T02:43:21.677Z,98700.72
2023-05-16T02:45:49.144Z,98704.41
2023-05-16T02:48:17.245Z,98714.75
2023-05-16T02:50:44.284Z,98724.09
2023-05-16T02:53:11.678Z,98724.41
2023-05-16T02:55:38.955Z,98725.56
2023-05-16T02:58:06.146Z,98717.44
2023-05-16T03:00:33.667Z,98694.09
2023-05-16T03:03:00.815Z,98683.72
2023-05-16T03:05:28.828Z,98678.94
2023-05-16T03:07:56.275Z,98668.13
2023-05-16T03:10:23.377Z,98670.88
2023-05-16T03:12:50.739Z,98687.56
2023-05-16T03:15:18.021Z,98690.16
2023-05-16T03:17:45.027Z,98696.16
2023-05-16T03:20:12.458Z,98694.22
2023-05-16T03:22:40.506Z,98715.50
2023-05-16T03:25:08.017Z,98713.97
2023-05-16T03:27:35.158Z,98714.78
2023-05-16T03:30:02.537Z,98707.47
2023-05-16T03:32:29.649Z,98714.00
2023-05-16T03:34:56.758Z,98719.22
2023-05-16T03:37:24.122Z,98709.56
2023-05-16T03:39:51.362Z,98706.81
2023-05-16T03:42:18.502Z,98696.09
2023-05-16T03:44:46.135Z,98692.59
2023-05-16T03:47:13.190Z,98682.91
2023-05-16T03:49:40.373Z,98683.13
2023-05-16T03:52:07.721Z,98685.16
2023-05-16T03:54:34.868Z,98689.16
2023-05-16T03:57:02.758Z,98692.31
2023-05-16T03:59:30.066Z,98686.88
2023-05-16T04:01:57.125Z,98687.63
2023-05-16T04:04:24.488Z,98678.84
2023-05-16T04:06:51.706Z,98680.53
2023-05-16T04:09:18.823Z,98686.78
2023-05-16T04:11:46.408Z,98685.81
2023-05-16T04:14:13.343Z,98693.91
2023-05-16T04:16:40.366Z,98704.16
2023-05-16T04:19:08.038Z,98705.72
2023-05-16T04:21:36.424Z,98689.25
2023-05-16T04:24:03.552Z,98697.47
2023-05-16T04:26:31.919Z,98706.16
2023-05-16T04:29:00.214Z,98727.87
2023-05-16T04:31:27.446Z,98723.91
2023-05-16T04:33:55.008Z,98731.00
2023-05-16T04:36:22.182Z,98734.78
2023-05-16T04:38:49.374Z,98735.41
2023-05-16T04:41:16.714Z,98731.44
2023-05-16T04:43:44.458Z,98724.72
2023-05-16T04:46:11.774Z,98718.81
2023-05-16T04:48:39.095Z,98716.28
2023-05-16T04:51:06.322Z,98712.37
2023-05-16T04:53:33.833Z,98725.63
2023-05-16T04:56:01.292Z,98726.59
2023-05-16T04:58:28.285Z,98736.37
2023-05-16T05:00:55.886Z,98735.09
2023-05-16T05:03:23.953Z,98732.69
2023-05-16T05:05:51.757Z,98730.19
2023-05-16T05:08:19.064Z,98724.25
2023-05-16T05:10:46.373Z,98737.69
2023-05-16T05:13:13.498Z,98741.69
2023-05-16T05:15:40.746Z,98742.53
2023-05-16T05:18:08.210Z,98751.47
2023-05-16T05:20:35.821Z,98744.94
2023-05-16T05:23:02.992Z,98743.87
2023-05-16T05:25:30.325Z,98740.12
2023-05-16T05:27:57.373Z,98743.50
2023-05-16T05:30:24.544Z,98742.06
2023-05-16T05:32:51.916Z,98733.97
2023-05-16T05:35:18.966Z,98728.87
2023-05-16T05:37:46.380Z,98726.00
2023-05-16T05:40:13.651Z,98742.91
2023-05-16T05:42:41.609Z,98732.53
2023-05-16T05:45:09.018Z,98727.47
2023-05-16T05:47:36.512Z,98722.75
2023-05-16T05:50:04.157Z,98726.16
2023-05-16T05:52:31.235Z,98727.84
2023-05-16T05:54:59.535Z,98734.34
2023-05-16T05:57:26.684Z,98726.50
2023-05-16T05:59:53.802Z,98722.03
2023-05-16T06:02:21.363Z,98724.09
2023-05-16T06:04:48.700Z,98724.56
2023-05-16T06:07:16.900Z,98717.59
2023-05-16T06:09:44.142Z,98722.38
2023-05-16T06:12:11.563Z,98710.44
2023-05-16T06:14:38.644Z,98707.03
2023-05-16T06:17:05.856Z,98707.28
2023-05-16T06:19:33.305Z,98698.56
2023-05-16T06:22:00.452Z,98701.00
2023-05-16T06:24:29.781Z,98698.56
2023-05-16T06:26:58.176Z,98704.38
2023-05-16T06:29:25.439Z,98698.56
2023-05-16T06:31:52.689Z,98696.38
2023-05-16T06:34:27.992Z,98693.16
2023-05-16T06:36:55.493Z,98689.53
2023-05-16T06:39:22.834Z,98686.81
2023-05-16T06:41:50.020Z,98687.44
2023-05-16T06:44:17.420Z,98683.94
2023-05-16T06:46:44.843Z,98695.03
2023-05-16T06:49:11.997Z,98697.56
2023-05-16T06:51:40.486Z,98690.16
2023-05-16T06:54:07.856Z,98691.00
2023-05-16T06:56:35.059Z,98691.91
2023-05-16T06:59:02.339Z,98688.06
2023-05-16T07:01:30.010Z,98691.59
2023-05-16T07:03:57.282Z,98698.47
2023-05-16T07:06:24.560Z,98693.62
2023-05-16T07:08:51.949Z,98700.53
2023-05-16T07:11:19.077Z,98706.06
2023-05-16T07:13:46.179Z,98697.31
2023-05-16T07:16:13.647Z,98694.09
2023-05-16T07:18:40.937Z,98687.66
2023-05-16T07:21:08.706Z,98680.72
2023-05-16T07:23:36.009Z,98672.16
2023-05-16T07:26:03.596Z,98678.56
2023-05-16T07:28:30.791Z,98683.53
2023-05-16T07:30:58.920Z,98680.06
2023-05-16T07:33:27.698Z,98677.75
2023-05-16T07:36:07.914Z,98681.72
2023-05-16T07:38:43.091Z,98676.41
2023-05-16T07:41:10.158Z,98675.00
2023-05-16T07:43:37.343Z,98670.97
2023-05-16T07:46:05.867Z,98667.50
2023-05-16T07:48:33.113Z,98673.66
2023-05-16T07:51:00.408Z,98674.00
2023-05-16T07:53:27.798Z,98669.31
2023-05-16T07:55:55.050Z,98671.34
2023-05-16T07:58:22.366Z,98682.69
2023-05-16T08:00:50.972Z,98679.06
2023-05-16T08:03:18.697Z,98683.78
2023-05-16T08:05:45.981Z,98690.16
2023-05-16T08:08:13.239Z,98685.69
2023-05-16T08:10:40.667Z,98683.53
2023-05-16T08:13:08.220Z,98683.41
2023-05-16T08:15:35.915Z,98690.19
2023-05-16T08:18:03.825Z,98688.00
2023-05-16T08:20:31.005Z,98678.97
2023-05-16T08:22:58.038Z,98668.09
2023-05-16T08:25:25.790Z,98666.44
2023-05-16T08:27:53.062Z,98659.53
2023-05-16T08:30:20.136Z,98659.19
2023-05-16T08:32:47.762Z,98666.53
2023-05-16T08:35:14.932Z,98654.44
2023-05-16T08:37:42.009Z,98654.09
2023-05-16T08:40:10.812Z,98659.63
2023-05-16T08:42:39.200Z,98656.97
2023-05-16T08:45:07.989Z,98660.00
2023-05-16T08:47:37.709Z,98663.84
2023-05-16T08:50:06.477Z,98651.69
2023-05-16T08:52:35.572Z,98653.28
2023-05-16T08:55:11.615Z,98648.84
2023-05-16T08:57:39.698Z,98662.47
2023-05-16T09:00:12.256Z,98653.78
2023-05-16T09:02:44.562Z,98655.69
2023-05-16T09:05:14.144Z,98663.72
2023-05-16T09:07:43.132Z,98657.69
2023-05-16T09:10:11.269Z,98638.44
2023-05-16T09:12:40.553Z,98644.59
2023-05-16T09:15:08.905Z,98638.56
2023-05-16T09:17:39.948Z,98639.94
2023-05-16T09:20:14.025Z,98643.50
2023-05-16T09:22:51.153Z,98644.03
2023-05-16T09:25:29.526Z,98642.94
2023-05-16T09:28:22.764Z,98633.00
2023-05-16T09:30:52.422Z,98644.97
2023-05-16T09:33:19.590Z,98637.44
2023-05-16T09:35:46.967Z,98635.63
2023-05-16T09:38:16.696Z,98640.59
2023-05-16T09:40:45.443Z,98646.63
2023-05-16T09:43:16.451Z,98649.72
2023-05-16T09:45:48.973Z,98650.41
2023-05-16T09:48:17.214Z,98654.81
2023-05-16T09:50:52.502Z,98653.00
2023-05-16T09:53:27.855Z,98648.31
2023-05-16T09:56:06.776Z,98641.66
2023-05-16T09:58:38.201Z,98633.69
2023-05-16T10:01:07.375Z,98641.66
2023-05-16T10:03:37.215Z,98632.50
2023-05-16T10:06:05.938Z,98634.09
2023-05-16T10:08:36.524Z,98633.84
2023-05-16T10:11:06.090Z,98631.53
2023-05-16T10:13:35.295Z,98630.59
2023-05-16T10:16:11.294Z,98634.66
2023-05-16T10:18:40.562Z,98627.66
2023-05-16T10:21:16.021Z,98618.31
2023-05-16T10:23:47.522Z,98610.34
2023-05-16T10:26:17.171Z,98610.25
2023-05-16T10:28:45.567Z,98609.41
2023-05-16T10:31:14.652Z,98605.69
2023-05-16T10:33:42.198Z,98609.31
2023-05-16T10:36:10.717Z,98613.31
2023-05-16T10:38:39.422Z,98616.03
2023-05-16T10:41:07.735Z,98617.06
2023-05-16T10:43:35.144Z,98614.75
2023-05-16T10:46:12.062Z,98599.47
2023-05-16T10:48:41.196Z,98569.78
2023-05-16T10:51:23.421Z,98568.34
2023-05-16T10:53:55.062Z,98572.03
2023-05-16T10:56:27.381Z,98574.47
2023-05-16T10:58:56.862Z,98588.25
2023-05-16T11:01:30.233Z,98574.94
2023-05-16T11:04:01.065Z,98568.34
2023-05-16T11:06:35.221Z,98555.16
2023-05-16T11:09:11.736Z,98555.84
2023-05-16T11:11:49.053Z,98548.53
2023-05-16T11:14:24.285Z,98537.06
2023-05-16T11:17:10.327Z,98534.31
2023-05-16T11:19:50.735Z,98544.31
2023-05-16T11:22:24.013Z,98533.25
2023-05-16T11:25:01.817Z,98532.66
2023-05-16T11:27:32.705Z,98541.75
2023-05-16T11:30:05.049Z,98547.78
2023-05-16T11:32:37.407Z,98538.31
2023-05-16T11:35:07.347Z,98550.66
2023-05-16T11:37:36.532Z,98551.75
2023-05-16T11:40:04.469Z,98543.63
2023-05-16T11:42:34.550Z,98548.16
2023-05-16T11:45:09.171Z,98538.53
2023-05-16T11:47:38.716Z,98539.53
2023-05-16T11:50:17.020Z,98537.28
2023-05-16T11:52:50.241Z,98531.94
2023-05-16T11:55:32.616Z,98527.56
2023-05-16T11:58:06.584Z,98521.66
2023-05-16T12:00:33.919Z,98530.94
2023-05-16T12:03:05.085Z,98527.81
2023-05-16T12:05:34.055Z,98533.19
2023-05-16T12:08:05.823Z,98526.62
2023-05-16T12:10:36.212Z,98527.47
2023-05-16T12:13:04.111Z,98530.13
2023-05-16T12:15:31.730Z,98524.63
2023-05-16T12:17:59.248Z,98534.47
2023-05-16T12:20:27.023Z,98527.03
2023-05-16T12:22:58.277Z,98527.88
2023-05-16T12:25:31.947Z,98529.56
2023-05-16T12:28:01.942Z,98527.47
2023-05-16T12:30:32.748Z,98522.53
2023-05-16T12:33:07.997Z,98525.47
2023-05-16T12:35:38.172Z,98508.38
2023-05-16T12:38:10.533Z,98513.97
2023-05-16T12:40:39.533Z,98520.31
2023-05-16T12:43:33.132Z,98518.34
2023-05-16T12:46:00.401Z,98530.81
2023-05-16T12:48:37.033Z,98523.06
2023-05-16T12:51:18.673Z,98522.50
2023-05-16T12:54:05.846Z,98521.47
2023-05-16T12:56:40.098Z,98522.19
2023-05-16T12:59:08.675Z,98497.94
2023-05-16T13:01:36.889Z,98499.06
2023-05-16T13:04:05.198Z,98481.72
2023-05-16T13:06:45.357Z,98500.28
2023-05-16T13:09:19.820Z,98485.75
2023-05-16T13:11:47.341Z,98473.28
2023-05-16T13:14:14.377Z,98477.94
2023-05-16T13:16:41.577Z,98468.13
2023-05-16T13:19:09.373Z,98455.75
2023-05-16T13:21:36.457Z,98431.13
2023-05-16T13:24:03.741Z,98425.94
2023-05-16T13:26:31.307Z,98420.31
2023-05-16T13:28:58.408Z,98409.09
2023-05-16T13:31:25.541Z,98407.47
2023-05-16T13:33:53.083Z,98414.97
2023-05-16T13:36:20.150Z,98419.97
2023-05-16T13:38:47.351Z,98423.00
2023-05-16T13:41:14.704Z,98429.75
2023-05-16T13:43:41.786Z,98426.34
2023-05-16T13:46:09.041Z,98424.13
2023-05-16T13:48:36.403Z,98434.19
2023-05-16T13:51:03.521Z,98442.62
2023-05-16T13:53:30.602Z,98446.41
2023-05-16T13:55:57.931Z,98445.75
2023-05-16T13:58:25.135Z,98444.97
2023-05-16T14:00:52.952Z,98444.13
2023-05-16T14:03:20.751Z,98439.97
2023-05-16T14:05:49.471Z,98431.66
2023-05-16T14:08:16.498Z,98431.53
2023-05-16T14:10:43.874Z,98426.28
2023-05-16T14:13:10.853Z,98431.94
2023-05-16T14:15:37.943Z,98430.63
2023-05-16T14:18:05.504Z,98436.88
2023-05-16T14:20:32.575Z,98439.69
2023-05-16T14:22:59.623Z,98443.28
2023-05-16T14:25:27.255Z,98448.47
2023-05-16T14:27:54.639Z,98458.25
2023-05-16T14:30:22.097Z,98456.25
2023-05-16T14:32:49.528Z,98464.22
2023-05-16T14:35:16.732Z,98456.63
2023-05-16T14:37:43.828Z,98467.25
2023-05-16T14:40:11.472Z,98468.00
2023-05-16T14:42:38.615Z,98466.91
2023-05-16T14:45:06.681Z,98465.75
2023-05-16T14:47:34.108Z,98459.22
2023-05-16T14:50:01.401Z,98472.50
2023-05-16T14:52:28.769Z,98458.62
2023-05-16T14:54:56.191Z,98455.53
2023-05-16T14:57:23.310Z,98461.31
2023-05-16T14:59:51.003Z,98455.84
2023-05-16T15:02:19.254Z,98457.00
2023-05-16T15:04:46.510Z,98453.47
2023-05-16T15:07:13.683Z,98447.75
2023-05-16T15:09:41.299Z,98456.44
2023-05-16T15:12:08.817Z,98452.00
2023-05-16T15:14:36.129Z,98449.78
2023-05-16T15:17:06.032Z,98450.62
2023-05-16T15:19:35.233Z,98443.09
2023-05-16T15:22:02.593Z,98437.66
2023-05-16T15:24:30.055Z,98430.94
2023-05-16T15:26:57.849Z,98430.97
2023-05-16T15:29:26.277Z,98419.75
2023-05-16T15:31:53.751Z,98427.03
2023-05-16T15:34:21.065Z,98421.72
2023-05-16T15:36:48.214Z,98414.00
2023-05-16T15:39:16.209Z,98408.56
2023-05-16T15:42:00.663Z,98406.59
2023-05-16T15:44:30.945Z,98394.41
2023-05-16T15:46:57.990Z,98407.97
2023-05-16T15:49:25.090Z,98403.62
2023-05-16T15:51:53.132Z,98406.88
2023-05-16T15:54:20.718Z,98405.59
2023-05-16T15:56:47.729Z,98402.38
2023-05-16T15:59:15.102Z,98391.00
2023-05-16T16:01:42.252Z,98396.50
2023-05-16T16:04:09.717Z,98397.16
2023-05-16T16:06:36.879Z,98397.03
2023-05-16T16:09:04.283Z,98397.59
2023-05-16T16:11:31.680Z,98382.44
2023-05-16T16:13:58.916Z,98384.41
2023-05-16T16:16:26.270Z,98390.03
2023-05-16T16:18:54.148Z,98383.72
2023-05-16T16:21:21.548Z,98386.38
2023-05-16T16:23:48.564Z,98398.69
2023-05-16T16:26:16.100Z,98395.34
2023-05-16T16:28:43.170Z,98401.22
2023-05-16T16:31:10.258Z,98402.34
2023-05-16T16:33:37.629Z,98401.22
2023-05-16T16:36:05.015Z,98403.75
2023-05-16T16:38:32.004Z,98393.66
2023-05-16T16:40:59.321Z,98395.63
2023-05-16T16:43:26.443Z,98389.72
2023-05-16T16:45:53.785Z,98384.41
2023-05-16T16:48:21.173Z,98384.13
2023-05-16T16:50:48.297Z,98390.16
2023-05-16T16:53:15.437Z,98387.78
2023-05-16T16:55:42.814Z,98385.66
2023-05-16T16:58:09.867Z,98391.69
2023-05-16T17:00:36.978Z,98389.03
2023-05-16T17:03:05.009Z,98382.88
2023-05-16T17:05:32.254Z,98390.88
2023-05-16T17:07:59.517Z,98396.03
2023-05-16T17:10:27.057Z,98402.19
2023-05-16T17:12:54.741Z,98403.19
2023-05-16T17:15:22.094Z,98406.00
2023-05-16T17:17:50.048Z,98405.12
2023-05-16T17:20:17.175Z,98394.06
2023-05-16T17:22:44.814Z,98383.56
2023-05-16T17:25:12.358Z,98381.88
2023-05-16T17:27:40.730Z,98371.22
2023-05-16T17:30:08.620Z,98367.03
2023-05-16T17:32:36.079Z,98369.13
2023-05-16T17:35:04.173Z,98373.59
2023-05-16T17:37:31.574Z,98379.63
2023-05-16T17:39:59.705Z,98383.56
2023-05-16T17:42:26.839Z,98385.91
2023-05-16T17:44:53.946Z,98396.16
2023-05-16T17:47:21.406Z,98400.78
2023-05-16T17:49:49.509Z,98415.47
2023-05-16T17:52:16.824Z,98407.94
2023-05-16T17:54:44.400Z,98413.81
2023-05-16T17:57:11.589Z,98408.06
2023-05-16T17:59:38.709Z,98401.06
2023-05-16T18:02:09.777Z,98404.84
2023-05-16T18:04:37.882Z,98401.50
2023-05-16T18:07:05.397Z,98401.22
2023-05-16T18:09:32.538Z,98406.53
2023-05-16T18:12:01.325Z,98390.84
2023-05-16T18:14:28.472Z,98396.84
2023-05-16T18:16:55.693Z,98392.66
2023-05-16T18:19:23.920Z,98393.06
2023-05-16T18:21:51.192Z,98395.88
2023-05-16T18:24:18.374Z,98407.47
2023-05-16T18:26:48.398Z,98401.31
2023-05-16T18:29:15.747Z,98404.97
2023-05-16T18:31:43.078Z,98405.66
2023-05-16T18:34:10.640Z,98408.87
2023-05-16T18:36:37.899Z,98401.47
2023-05-16T18:39:05.037Z,98392.19
2023-05-16T18:41:32.502Z,98407.91
2023-05-16T18:44:00.016Z,98410.81
2023-05-16T18:46:27.338Z,98405.66
2023-05-16T18:48:57.779Z,98405.94
2023-05-16T18:51:25.687Z,98405.94
2023-05-16T18:53:53.025Z,98398.91
2023-05-16T18:56:21.807Z,98401.47
2023-05-16T18:58:49.232Z,98407.63
2023-05-16T19:01:16.343Z,98398.91
2023-05-16T19:03:43.880Z,98402.56
2023-05-16T19:06:11.487Z,98405.94
2023-05-16T19:08:47.635Z,98398.66
2023-05-16T19:11:16.865Z,98406.78
2023-05-16T19:13:47.454Z,98407.19
2023-05-16T19:16:15.291Z,98410.25
2023-05-16T19:18:42.811Z,98417.13
2023-05-16T19:21:13.087Z,98414.72
2023-05-16T19:23:40.499Z,98418.53
2023-05-16T19:26:07.866Z,98420.34
2023-05-16T19:28:35.063Z,98426.78
2023-05-16T19:31:02.147Z,98422.72
2023-05-16T19:33:29.804Z,98422.87
2023-05-16T19:35:58.471Z,98421.34
2023-05-16T19:38:26.190Z,98415.59
2023-05-16T19:40:53.608Z,98411.53
2023-05-16T19:43:20.812Z,98414.47
2023-05-16T19:45:48.188Z,98415.16
2023-05-16T19:48:16.246Z,98412.22
2023-05-16T19:50:43.610Z,98409.84
2023-05-16T19:53:10.950Z,98403.94
2023-05-16T19:55:38.384Z,98407.75
2023-05-16T19:58:05.701Z,98412.75
2023-05-16T20:00:32.894Z,98412.03
2023-05-16T20:03:00.476Z,98415.72
2023-05-16T20:05:27.759Z,98410.41
2023-05-16T20:07:55.993Z,98419.38
2023-05-16T20:10:23.764Z,98408.03
2023-05-16T20:12:51.510Z,98423.72
2023-05-16T20:15:18.996Z,98412.38
2023-05-16T20:17:46.546Z,98425.09
2023-05-16T20:20:13.884Z,98413.47
2023-05-16T20:22:41.806Z,98417.66
2023-05-16T20:25:10.496Z,98413.75
2023-05-16T20:27:38.149Z,98415.00
2023-05-16T20:30:07.399Z,98407.59
2023-05-16T20:32:34.916Z,98411.81
2023-05-16T20:35:04.857Z,98412.50
2023-05-16T20:37:32.002Z,98407.19
2023-05-16T20:39:59.524Z,98414.19
2023-05-16T20:42:26.745Z,98414.63
2023-05-16T20:44:54.008Z,98405.78
2023-05-16T20:47:21.560Z,98404.12
2023-05-16T20:49:48.691Z,98402.03
2023-05-16T20:52:15.903Z,98401.47
2023-05-16T20:54:43.355Z,98417.72
2023-05-16T20:57:10.419Z,98406.81
2023-05-16T20:59:37.622Z,98415.06
2023-05-16T21:02:06.191Z,98415.19
2023-05-16T21:04:33.436Z,98419.41
2023-05-16T21:07:00.611Z,98414.09
2023-05-16T21:09:28.218Z,98406.69
2023-05-16T21:11:55.383Z,98406.25
2023-05-16T21:14:22.490Z,98409.88
2023-05-16T21:16:49.961Z,98418.03
2023-05-16T21:19:17.169Z,98417.75
2023-05-16T21:21:44.773Z,98413.56
2023-05-16T21:24:12.220Z,98413.25
2023-05-16T21:26:39.296Z,98409.88
2023-05-16T21:29:06.459Z,98407.66
2023-05-16T21:31:33.890Z,98394.22
2023-05-16T21:34:01.006Z,98404.00
2023-05-16T21:36:28.114Z,98391.69
2023-05-16T21:38:55.733Z,98398.13
2023-05-16T21:41:23.225Z,98402.06
2023-05-16T21:43:50.337Z,98393.22
2023-05-16T21:46:17.880Z,98402.75
2023-05-16T21:48:45.075Z,98404.56
2023-05-16T21:51:12.183Z,98399.25
2023-05-16T21:53:39.654Z,98398.97
2023-05-16T21:56:06.919Z,98394.75
2023-05-16T21:58:34.026Z,98391.41
2023-05-16T22:01:01.385Z,98402.16
2023-05-16T22:03:28.844Z,98403.69
2023-05-16T22:05:58.001Z,98406.50
2023-05-16T22:08:25.165Z,98405.53
2023-05-16T22:10:53.136Z,98404.53
2023-05-16T22:13:20.549Z,98408.91
2023-05-16T22:15:59.492Z,98408.47
2023-05-16T22:18:31.703Z,98391.25
2023-05-16T22:20:58.999Z,98395.34
2023-05-16T22:23:26.113Z,98392.50
2023-05-16T22:25:53.579Z,98394.31
2023-05-16T22:28:20.774Z,98400.37
2023-05-16T22:30:47.900Z,98411.12
2023-05-16T22:33:15.507Z,98403.16
2023-05-16T22:35:42.693Z,98405.81
2023-05-16T22:38:09.768Z,98396.59
2023-05-16T22:40:37.858Z,98395.75
2023-05-16T22:43:04.994Z,98391.81
2023-05-16T22:45:32.211Z,98384.09
2023-05-16T22:47:59.633Z,98390.56
2023-05-16T22:50:26.786Z,98394.03
2023-05-16T22:52:53.883Z,98404.81
2023-05-16T22:55:21.314Z,98405.78
2023-05-16T22:57:48.488Z,98406.34
2023-05-16T23:00:16.282Z,98409.56
2023-05-16T23:02:43.931Z,98403.13
2023-05-16T23:05:11.090Z,98407.59
2023-05-16T23:07:38.188Z,98416.28
2023-05-16T23:10:06.529Z,98413.22
2023-05-16T23:12:33.617Z,98414.31
2023-05-16T23:15:00.881Z,98416.69
2023-05-16T23:17:28.283Z,98417.09
2023-05-16T23:19:55.651Z,98422.41
2023-05-16T23:22:22.968Z,98425.34
2023-05-16T23:24:50.380Z,98420.31
2023-05-16T23:27:17.439Z,98421.47
2023-05-16T23:29:44.601Z,98423.41
2023-05-16T23:32:12.038Z,98428.41
2023-05-16T23:34:39.159Z,98433.31
2023-05-16T23:37:06.325Z,98429.09
2023-05-16T23:39:33.731Z,98427.16
2023-05-16T23:42:01.720Z,98428.03
2023-05-16T23:44:28.880Z,98424.25
2023-05-16T23:46:56.297Z,98420.84
2023-05-16T23:49:23.442Z,98423.25
2023-05-16T23:54:21.057Z,98421.69
2023-05-16T23:56:48.198Z,98417.09
2023-05-16T23:59:16.332Z,98427.50
